sensor_id;sensor_type;location;lat;lon;timestamp;P1;durP1;ratioP1;P2;durP2;ratioP2
1779;SDS011;10019;46.670;14.260;2022-07-23T00:00:27;19.73;;;18.07;;
1779;SDS011;10019;46.670;14.260;2022-07-23T00:02:59;20.60;;;18.60;;
1779;SDS011;10019;46.670;14.260;2022-07-23T00:05:30;20.00;;;18.17;;
1779;SDS011;10019;46.670;14.260;2022-07-23T00:08:02;20.60;;;18.60;;
1779;SDS011;10019;46.670;14.260;2022-07-23T00:10:34;20.27;;;18.33;;
1779;SDS011;10019;46.670;14.260;2022-07-23T00:13:06;19.20;;;17.30;;
1779;SDS011;10019;46.670;14.260;2022-07-23T00:15:39;19.53;;;17.83;;
1779;SDS011;10019;46.670;14.260;2022-07-23T00:18:11;20.90;;;18.97;;
1779;SDS011;10019;46.670;14.260;2022-07-23T00:20:43;23.93;;;21.80;;
1779;SDS011;10019;46.670;14.260;2022-07-23T00:23:14;23.20;;;21.20;;
1779;SDS011;10019;46.670;14.260;2022-07-23T00:25:47;21.63;;;19.70;;
1779;SDS011;10019;46.670;14.260;2022-07-23T00:28:18;22.97;;;20.80;;
1779;SDS011;10019;46.670;14.260;2022-07-23T00:30:51;23.17;;;20.90;;
1779;SDS011;10019;46.670;14.260;2022-07-23T00:33:23;22.40;;;20.33;;
1779;SDS011;10019;46.670;14.260;2022-07-23T00:35:55;21.50;;;19.50;;
1779;SDS011;10019;46.670;14.260;2022-07-23T00:38:26;23.60;;;21.30;;
1779;SDS011;10019;46.670;14.260;2022-07-23T00:40:58;22.17;;;20.17;;
1779;SDS011;10019;46.670;14.260;2022-07-23T00:43:30;22.03;;;20.03;;
1779;SDS011;10019;46.670;14.260;2022-07-23T00:46:03;22.77;;;20.40;;
1779;SDS011;10019;46.670;14.260;2022-07-23T00:48:35;22.63;;;20.30;;
1779;SDS011;10019;46.670;14.260;2022-07-23T00:51:08;21.27;;;19.37;;
1779;SDS011;10019;46.670;14.260;2022-07-23T00:53:40;22.57;;;20.30;;
1779;SDS011;10019;46.670;14.260;2022-07-23T00:56:12;21.73;;;19.80;;
1779;SDS011;10019;46.670;14.260;2022-07-23T00:58:44;22.50;;;20.43;;
1779;SDS011;10019;46.670;14.260;2022-07-23T01:01:17;21.37;;;19.47;;
1779;SDS011;10019;46.670;14.260;2022-07-23T01:03:49;22.63;;;20.47;;
1779;SDS011;10019;46.670;14.260;2022-07-23T01:06:20;21.30;;;19.10;;
1779;SDS011;10019;46.670;14.260;2022-07-23T01:08:52;22.63;;;20.63;;
1779;SDS011;10019;46.670;14.260;2022-07-23T01:11:25;21.50;;;19.60;;
1779;SDS011;10019;46.670;14.260;2022-07-23T01:13:56;22.87;;;20.80;;
1779;SDS011;10019;46.670;14.260;2022-07-23T01:16:29;23.03;;;21.03;;
1779;SDS011;10019;46.670;14.260;2022-07-23T01:19:01;23.30;;;21.17;;
1779;SDS011;10019;46.670;14.260;2022-07-23T01:21:37;23.13;;;20.93;;
1779;SDS011;10019;46.670;14.260;2022-07-23T01:24:11;23.77;;;21.67;;
1779;SDS011;10019;46.670;14.260;2022-07-23T01:26:44;24.50;;;22.20;;
1779;SDS011;10019;46.670;14.260;2022-07-23T01:29:16;23.43;;;21.33;;
1779;SDS011;10019;46.670;14.260;2022-07-23T01:31:48;22.67;;;20.60;;
1779;SDS011;10019;46.670;14.260;2022-07-23T01:34:20;23.47;;;21.37;;
1779;SDS011;10019;46.670;14.260;2022-07-23T01:36:52;26.37;;;21.83;;
1779;SDS011;10019;46.670;14.260;2022-07-23T01:39:25;22.50;;;20.43;;
1779;SDS011;10019;46.670;14.260;2022-07-23T01:41:56;23.73;;;21.63;;
1779;SDS011;10019;46.670;14.260;2022-07-23T01:44:28;24.50;;;19.70;;
1779;SDS011;10019;46.670;14.260;2022-07-23T01:47:00;22.60;;;20.47;;
1779;SDS011;10019;46.670;14.260;2022-07-23T01:49:31;21.53;;;19.63;;
1779;SDS011;10019;46.670;14.260;2022-07-23T01:52:03;22.63;;;20.53;;
1779;SDS011;10019;46.670;14.260;2022-07-23T01:54:40;22.10;;;19.53;;
1779;SDS011;10019;46.670;14.260;2022-07-23T01:57:12;21.73;;;19.70;;
1779;SDS011;10019;46.670;14.260;2022-07-23T01:59:43;21.60;;;19.47;;
1779;SDS011;10019;46.670;14.260;2022-07-23T02:02:15;22.10;;;20.20;;
1779;SDS011;10019;46.670;14.260;2022-07-23T02:04:47;22.03;;;20.07;;
1779;SDS011;10019;46.670;14.260;2022-07-23T02:07:18;21.90;;;20.00;;
1779;SDS011;10019;46.670;14.260;2022-07-23T02:09:51;22.80;;;20.53;;
1779;SDS011;10019;46.670;14.260;2022-07-23T02:12:23;22.30;;;20.00;;
1779;SDS011;10019;46.670;14.260;2022-07-23T02:14:55;21.27;;;19.37;;
1779;SDS011;10019;46.670;14.260;2022-07-23T02:17:26;21.67;;;19.77;;
1779;SDS011;10019;46.670;14.260;2022-07-23T02:19:58;21.00;;;19.10;;
1779;SDS011;10019;46.670;14.260;2022-07-23T02:22:30;21.37;;;19.47;;
1779;SDS011;10019;46.670;14.260;2022-07-23T02:25:03;21.63;;;19.53;;
1779;SDS011;10019;46.670;14.260;2022-07-23T02:27:35;21.97;;;20.07;;
1779;SDS011;10019;46.670;14.260;2022-07-23T02:30:08;22.00;;;19.90;;
1779;SDS011;10019;46.670;14.260;2022-07-23T02:32:40;22.30;;;20.00;;
1779;SDS011;10019;46.670;14.260;2022-07-23T02:35:11;22.47;;;20.17;;
1779;SDS011;10019;46.670;14.260;2022-07-23T02:37:43;22.07;;;19.97;;
1779;SDS011;10019;46.670;14.260;2022-07-23T02:40:16;22.40;;;20.30;;
1779;SDS011;10019;46.670;14.260;2022-07-23T02:42:48;20.80;;;18.70;;
1779;SDS011;10019;46.670;14.260;2022-07-23T02:45:19;22.40;;;20.40;;
1779;SDS011;10019;46.670;14.260;2022-07-23T02:47:51;23.70;;;21.50;;
1779;SDS011;10019;46.670;14.260;2022-07-23T02:50:23;22.70;;;20.30;;
1779;SDS011;10019;46.670;14.260;2022-07-23T02:52:54;21.50;;;19.60;;
1779;SDS011;10019;46.670;14.260;2022-07-23T02:55:27;22.83;;;20.67;;
1779;SDS011;10019;46.670;14.260;2022-07-23T02:57:59;23.70;;;21.50;;
1779;SDS011;10019;46.670;14.260;2022-07-23T03:00:31;24.03;;;21.73;;
1779;SDS011;10019;46.670;14.260;2022-07-23T03:03:03;23.47;;;21.37;;
1779;SDS011;10019;46.670;14.260;2022-07-23T03:05:34;23.67;;;19.97;;
1779;SDS011;10019;46.670;14.260;2022-07-23T03:08:06;22.73;;;20.67;;
1779;SDS011;10019;46.670;14.260;2022-07-23T03:10:39;21.60;;;19.70;;
1779;SDS011;10019;46.670;14.260;2022-07-23T03:13:11;23.50;;;21.27;;
1779;SDS011;10019;46.670;14.260;2022-07-23T03:15:43;22.70;;;20.73;;
1779;SDS011;10019;46.670;14.260;2022-07-23T03:18:14;23.73;;;21.43;;
1779;SDS011;10019;46.670;14.260;2022-07-23T03:20:46;24.47;;;22.07;;
1779;SDS011;10019;46.670;14.260;2022-07-23T03:23:18;23.93;;;21.53;;
1779;SDS011;10019;46.670;14.260;2022-07-23T03:25:51;24.23;;;22.03;;
1779;SDS011;10019;46.670;14.260;2022-07-23T03:28:22;24.73;;;21.57;;
1779;SDS011;10019;46.670;14.260;2022-07-23T03:30:54;25.10;;;22.80;;
1779;SDS011;10019;46.670;14.260;2022-07-23T03:33:26;23.83;;;21.53;;
1779;SDS011;10019;46.670;14.260;2022-07-23T03:35:57;25.23;;;22.93;;
1779;SDS011;10019;46.670;14.260;2022-07-23T03:38:29;24.60;;;22.10;;
1779;SDS011;10019;46.670;14.260;2022-07-23T03:41:02;24.37;;;22.07;;
1779;SDS011;10019;46.670;14.260;2022-07-23T03:43:34;24.80;;;22.37;;
1779;SDS011;10019;46.670;14.260;2022-07-23T03:46:06;23.80;;;21.70;;
1779;SDS011;10019;46.670;14.260;2022-07-23T03:48:37;23.27;;;21.07;;
1779;SDS011;10019;46.670;14.260;2022-07-23T03:51:09;24.17;;;21.93;;
1779;SDS011;10019;46.670;14.260;2022-07-23T03:53:41;24.50;;;22.20;;
1779;SDS011;10019;46.670;14.260;2022-07-23T03:56:14;24.63;;;22.43;;
1779;SDS011;10019;46.670;14.260;2022-07-23T03:58:45;25.70;;;22.40;;
1779;SDS011;10019;46.670;14.260;2022-07-23T04:01:17;24.57;;;22.30;;
1779;SDS011;10019;46.670;14.260;2022-07-23T04:03:49;24.90;;;22.40;;
1779;SDS011;10019;46.670;14.260;2022-07-23T04:06:20;23.63;;;21.53;;
1779;SDS011;10019;46.670;14.260;2022-07-23T04:08:52;23.90;;;21.70;;
1779;SDS011;10019;46.670;14.260;2022-07-23T04:11:26;25.93;;;23.43;;
1779;SDS011;10019;46.670;14.260;2022-07-23T04:13:58;23.50;;;21.23;;
1779;SDS011;10019;46.670;14.260;2022-07-23T04:16:30;23.43;;;21.30;;
1779;SDS011;10019;46.670;14.260;2022-07-23T04:19:02;23.90;;;21.53;;
1779;SDS011;10019;46.670;14.260;2022-07-23T04:21:34;24.60;;;22.40;;
1779;SDS011;10019;46.670;14.260;2022-07-23T04:24:06;23.80;;;21.50;;
1779;SDS011;10019;46.670;14.260;2022-07-23T04:26:39;24.90;;;22.60;;
1779;SDS011;10019;46.670;14.260;2022-07-23T04:29:11;23.97;;;21.67;;
1779;SDS011;10019;46.670;14.260;2022-07-23T04:31:42;23.20;;;21.20;;
1779;SDS011;10019;46.670;14.260;2022-07-23T04:34:14;24.13;;;21.77;;
1779;SDS011;10019;46.670;14.260;2022-07-23T04:36:46;22.43;;;20.43;;
1779;SDS011;10019;46.670;14.260;2022-07-23T04:39:17;23.40;;;21.20;;
1779;SDS011;10019;46.670;14.260;2022-07-23T04:41:50;23.80;;;21.50;;
1779;SDS011;10019;46.670;14.260;2022-07-23T04:44:22;22.60;;;20.40;;
1779;SDS011;10019;46.670;14.260;2022-07-23T04:46:54;24.37;;;22.23;;
1779;SDS011;10019;46.670;14.260;2022-07-23T04:49:25;24.30;;;21.97;;
1779;SDS011;10019;46.670;14.260;2022-07-23T04:51:57;21.80;;;19.90;;
1779;SDS011;10019;46.670;14.260;2022-07-23T04:54:29;23.83;;;21.50;;
1779;SDS011;10019;46.670;14.260;2022-07-23T04:57:02;23.83;;;21.33;;
1779;SDS011;10019;46.670;14.260;2022-07-23T04:59:33;25.10;;;22.80;;
1779;SDS011;10019;46.670;14.260;2022-07-23T05:02:05;23.97;;;21.73;;
1779;SDS011;10019;46.670;14.260;2022-07-23T05:04:37;23.43;;;21.33;;
1779;SDS011;10019;46.670;14.260;2022-07-23T05:07:08;23.37;;;21.27;;
1779;SDS011;10019;46.670;14.260;2022-07-23T05:09:40;23.27;;;21.30;;
1779;SDS011;10019;46.670;14.260;2022-07-23T05:12:13;22.33;;;20.33;;
1779;SDS011;10019;46.670;14.260;2022-07-23T05:14:45;24.77;;;22.27;;
1779;SDS011;10019;46.670;14.260;2022-07-23T05:17:17;23.77;;;21.43;;
1779;SDS011;10019;46.670;14.260;2022-07-23T05:19:48;24.53;;;22.40;;
1779;SDS011;10019;46.670;14.260;2022-07-23T05:22:20;23.10;;;21.03;;
1779;SDS011;10019;46.670;14.260;2022-07-23T05:24:51;23.67;;;21.40;;
1779;SDS011;10019;46.670;14.260;2022-07-23T05:27:25;24.70;;;22.33;;
1779;SDS011;10019;46.670;14.260;2022-07-23T05:29:56;25.03;;;22.73;;
1779;SDS011;10019;46.670;14.260;2022-07-23T05:32:28;22.73;;;20.80;;
1779;SDS011;10019;46.670;14.260;2022-07-23T05:35:00;23.70;;;21.40;;
1779;SDS011;10019;46.670;14.260;2022-07-23T05:37:31;23.87;;;21.67;;
1779;SDS011;10019;46.670;14.260;2022-07-23T05:40:03;22.37;;;20.27;;
1779;SDS011;10019;46.670;14.260;2022-07-23T05:42:39;24.47;;;21.93;;
1779;SDS011;10019;46.670;14.260;2022-07-23T05:45:11;24.37;;;21.80;;
1779;SDS011;10019;46.670;14.260;2022-07-23T05:47:43;22.30;;;20.23;;
1779;SDS011;10019;46.670;14.260;2022-07-23T05:50:15;23.40;;;21.40;;
1779;SDS011;10019;46.670;14.260;2022-07-23T05:52:47;24.00;;;21.90;;
1779;SDS011;10019;46.670;14.260;2022-07-23T05:55:19;24.13;;;21.60;;
1779;SDS011;10019;46.670;14.260;2022-07-23T05:57:52;22.37;;;20.13;;
1779;SDS011;10019;46.670;14.260;2022-07-23T06:00:24;31.17;;;21.10;;
1779;SDS011;10019;46.670;14.260;2022-07-23T06:02:56;22.57;;;20.43;;
1779;SDS011;10019;46.670;14.260;2022-07-23T06:05:27;23.60;;;21.40;;
1779;SDS011;10019;46.670;14.260;2022-07-23T06:07:59;23.20;;;21.00;;
1779;SDS011;10019;46.670;14.260;2022-07-23T06:10:31;23.07;;;20.97;;
1779;SDS011;10019;46.670;14.260;2022-07-23T06:13:04;22.70;;;20.70;;
1779;SDS011;10019;46.670;14.260;2022-07-23T06:15:35;22.17;;;20.17;;
1779;SDS011;10019;46.670;14.260;2022-07-23T06:18:07;23.37;;;21.37;;
1779;SDS011;10019;46.670;14.260;2022-07-23T06:20:39;22.23;;;20.20;;
1779;SDS011;10019;46.670;14.260;2022-07-23T06:23:11;22.73;;;20.73;;
1779;SDS011;10019;46.670;14.260;2022-07-23T06:25:43;21.67;;;19.47;;
1779;SDS011;10019;46.670;14.260;2022-07-23T06:28:16;23.23;;;21.13;;
1779;SDS011;10019;46.670;14.260;2022-07-23T06:30:48;21.93;;;20.13;;
1779;SDS011;10019;46.670;14.260;2022-07-23T06:33:19;21.93;;;19.93;;
1779;SDS011;10019;46.670;14.260;2022-07-23T06:35:51;22.17;;;20.10;;
1779;SDS011;10019;46.670;14.260;2022-07-23T06:38:23;21.80;;;19.77;;
1779;SDS011;10019;46.670;14.260;2022-07-23T06:40:54;22.03;;;20.07;;
1779;SDS011;10019;46.670;14.260;2022-07-23T06:43:28;20.77;;;19.10;;
1779;SDS011;10019;46.670;14.260;2022-07-23T06:46:01;21.97;;;20.07;;
1779;SDS011;10019;46.670;14.260;2022-07-23T06:48:33;21.07;;;19.27;;
1779;SDS011;10019;46.670;14.260;2022-07-23T06:51:05;21.23;;;19.03;;
1779;SDS011;10019;46.670;14.260;2022-07-23T06:53:37;21.93;;;20.13;;
1779;SDS011;10019;46.670;14.260;2022-07-23T06:56:09;21.03;;;19.30;;
1779;SDS011;10019;46.670;14.260;2022-07-23T06:58:42;22.27;;;20.40;;
1779;SDS011;10019;46.670;14.260;2022-07-23T07:01:13;22.00;;;20.20;;
1779;SDS011;10019;46.670;14.260;2022-07-23T07:03:45;22.07;;;20.10;;
1779;SDS011;10019;46.670;14.260;2022-07-23T07:06:17;20.20;;;18.50;;
1779;SDS011;10019;46.670;14.260;2022-07-23T07:08:49;21.10;;;19.30;;
1779;SDS011;10019;46.670;14.260;2022-07-23T07:11:20;22.03;;;19.83;;
1779;SDS011;10019;46.670;14.260;2022-07-23T07:13:55;23.03;;;20.80;;
1779;SDS011;10019;46.670;14.260;2022-07-23T07:16:26;27.00;;;21.87;;
1779;SDS011;10019;46.670;14.260;2022-07-23T07:18:58;22.03;;;20.13;;
1779;SDS011;10019;46.670;14.260;2022-07-23T07:21:30;22.63;;;20.63;;
1779;SDS011;10019;46.670;14.260;2022-07-23T07:24:02;22.47;;;20.50;;
1779;SDS011;10019;46.670;14.260;2022-07-23T07:26:34;22.47;;;20.57;;
1779;SDS011;10019;46.670;14.260;2022-07-23T07:29:07;22.60;;;20.30;;
1779;SDS011;10019;46.670;14.260;2022-07-23T07:31:41;21.27;;;19.37;;
1779;SDS011;10019;46.670;14.260;2022-07-23T07:34:13;21.93;;;19.80;;
1779;SDS011;10019;46.670;14.260;2022-07-23T07:36:45;20.80;;;19.00;;
1779;SDS011;10019;46.670;14.260;2022-07-23T07:39:16;21.97;;;19.90;;
1779;SDS011;10019;46.670;14.260;2022-07-23T07:41:48;20.80;;;19.10;;
1779;SDS011;10019;46.670;14.260;2022-07-23T07:44:21;21.30;;;19.50;;
1779;SDS011;10019;46.670;14.260;2022-07-23T07:46:53;20.30;;;18.60;;
1779;SDS011;10019;46.670;14.260;2022-07-23T07:49:24;21.87;;;19.67;;
1779;SDS011;10019;46.670;14.260;2022-07-23T07:51:56;20.90;;;19.20;;
1779;SDS011;10019;46.670;14.260;2022-07-23T07:54:27;21.37;;;19.57;;
1779;SDS011;10019;46.670;14.260;2022-07-23T07:56:59;21.33;;;19.37;;
1779;SDS011;10019;46.670;14.260;2022-07-23T07:59:32;18.80;;;17.30;;
1779;SDS011;10019;46.670;14.260;2022-07-23T08:02:04;19.97;;;18.10;;
1779;SDS011;10019;46.670;14.260;2022-07-23T08:04:35;19.50;;;17.73;;
1779;SDS011;10019;46.670;14.260;2022-07-23T08:07:07;18.80;;;17.10;;
1779;SDS011;10019;46.670;14.260;2022-07-23T08:09:39;15.93;;;14.63;;
1779;SDS011;10019;46.670;14.260;2022-07-23T08:12:10;16.20;;;14.83;;
1779;SDS011;10019;46.670;14.260;2022-07-23T08:14:43;16.60;;;15.20;;
1779;SDS011;10019;46.670;14.260;2022-07-23T08:17:15;15.70;;;14.40;;
1779;SDS011;10019;46.670;14.260;2022-07-23T08:19:47;16.90;;;15.50;;
1779;SDS011;10019;46.670;14.260;2022-07-23T08:22:19;17.57;;;16.07;;
1779;SDS011;10019;46.670;14.260;2022-07-23T08:24:50;17.00;;;15.50;;
1779;SDS011;10019;46.670;14.260;2022-07-23T08:27:22;17.43;;;15.93;;
1779;SDS011;10019;46.670;14.260;2022-07-23T08:29:55;17.73;;;16.23;;
1779;SDS011;10019;46.670;14.260;2022-07-23T08:32:26;19.53;;;17.53;;
1779;SDS011;10019;46.670;14.260;2022-07-23T08:34:58;17.33;;;15.83;;
1779;SDS011;10019;46.670;14.260;2022-07-23T08:37:30;18.00;;;16.30;;
1779;SDS011;10019;46.670;14.260;2022-07-23T08:40:02;19.10;;;17.50;;
1779;SDS011;10019;46.670;14.260;2022-07-23T08:42:34;18.20;;;16.47;;
1779;SDS011;10019;46.670;14.260;2022-07-23T08:45:08;17.47;;;15.97;;
1779;SDS011;10019;46.670;14.260;2022-07-23T08:47:40;17.17;;;15.57;;
1779;SDS011;10019;46.670;14.260;2022-07-23T08:50:11;18.30;;;16.70;;
1779;SDS011;10019;46.670;14.260;2022-07-23T08:52:45;17.77;;;16.27;;
1779;SDS011;10019;46.670;14.260;2022-07-23T08:55:16;18.73;;;17.13;;
1779;SDS011;10019;46.670;14.260;2022-07-23T08:57:49;18.37;;;16.87;;
1779;SDS011;10019;46.670;14.260;2022-07-23T09:00:23;19.40;;;17.70;;
1779;SDS011;10019;46.670;14.260;2022-07-23T09:02:55;17.90;;;16.40;;
1779;SDS011;10019;46.670;14.260;2022-07-23T09:05:27;18.80;;;17.00;;
1779;SDS011;10019;46.670;14.260;2022-07-23T09:08:09;16.03;;;14.40;;
1779;SDS011;10019;46.670;14.260;2022-07-23T09:10:45;13.30;;;12.20;;
1779;SDS011;10019;46.670;14.260;2022-07-23T09:13:25;15.10;;;13.80;;
1779;SDS011;10019;46.670;14.260;2022-07-23T09:16:04;14.80;;;13.50;;
1779;SDS011;10019;46.670;14.260;2022-07-23T09:18:39;15.40;;;14.17;;
1779;SDS011;10019;46.670;14.260;2022-07-23T09:21:14;18.50;;;15.23;;
1779;SDS011;10019;46.670;14.260;2022-07-23T09:23:52;16.03;;;14.73;;
1779;SDS011;10019;46.670;14.260;2022-07-23T09:26:30;15.87;;;14.47;;
1779;SDS011;10019;46.670;14.260;2022-07-23T09:29:07;17.60;;;16.10;;
1779;SDS011;10019;46.670;14.260;2022-07-23T09:31:45;15.40;;;14.10;;
1779;SDS011;10019;46.670;14.260;2022-07-23T09:34:19;14.50;;;13.07;;
1779;SDS011;10019;46.670;14.260;2022-07-23T09:36:53;13.70;;;12.50;;
1779;SDS011;10019;46.670;14.260;2022-07-23T09:39:27;14.80;;;13.60;;
1779;SDS011;10019;46.670;14.260;2022-07-23T09:42:12;13.03;;;11.73;;
1779;SDS011;10019;46.670;14.260;2022-07-23T09:44:45;11.33;;;10.43;;
1779;SDS011;10019;46.670;14.260;2022-07-23T09:47:20;12.10;;;10.90;;
1779;SDS011;10019;46.670;14.260;2022-07-23T09:49:59;11.53;;;10.57;;
1779;SDS011;10019;46.670;14.260;2022-07-23T09:52:34;9.63;;;8.93;;
1779;SDS011;10019;46.670;14.260;2022-07-23T09:55:06;9.77;;;8.87;;
1779;SDS011;10019;46.670;14.260;2022-07-23T09:57:39;9.87;;;8.93;;
1779;SDS011;10019;46.670;14.260;2022-07-23T10:00:12;10.10;;;9.30;;
1779;SDS011;10019;46.670;14.260;2022-07-23T10:02:45;10.70;;;9.80;;
1779;SDS011;10019;46.670;14.260;2022-07-23T10:05:17;10.83;;;9.77;;
1779;SDS011;10019;46.670;14.260;2022-07-23T10:07:50;10.50;;;9.70;;
1779;SDS011;10019;46.670;14.260;2022-07-23T10:10:22;10.10;;;9.17;;
1779;SDS011;10019;46.670;14.260;2022-07-23T10:12:56;11.00;;;9.97;;
1779;SDS011;10019;46.670;14.260;2022-07-23T10:15:48;10.90;;;10.10;;
1779;SDS011;10019;46.670;14.260;2022-07-23T10:18:21;10.37;;;9.57;;
1779;SDS011;10019;46.670;14.260;2022-07-23T10:20:53;10.30;;;9.47;;
1779;SDS011;10019;46.670;14.260;2022-07-23T10:23:27;10.53;;;9.63;;
1779;SDS011;10019;46.670;14.260;2022-07-23T10:26:04;10.57;;;9.60;;
1779;SDS011;10019;46.670;14.260;2022-07-23T10:28:54;10.20;;;9.30;;
1779;SDS011;10019;46.670;14.260;2022-07-23T10:31:36;10.77;;;9.80;;
1779;SDS011;10019;46.670;14.260;2022-07-23T10:34:14;10.13;;;9.20;;
1779;SDS011;10019;46.670;14.260;2022-07-23T10:36:52;9.97;;;9.17;;
1779;SDS011;10019;46.670;14.260;2022-07-23T10:39:28;9.70;;;8.90;;
1779;SDS011;10019;46.670;14.260;2022-07-23T10:42:07;10.37;;;9.33;;
1779;SDS011;10019;46.670;14.260;2022-07-23T10:44:41;9.57;;;8.77;;
1779;SDS011;10019;46.670;14.260;2022-07-23T10:47:20;9.67;;;8.87;;
1779;SDS011;10019;46.670;14.260;2022-07-23T10:50:19;10.00;;;9.20;;
1779;SDS011;10019;46.670;14.260;2022-07-23T10:53:08;11.83;;;9.17;;
1779;SDS011;10019;46.670;14.260;2022-07-23T10:55:50;10.50;;;9.70;;
1779;SDS011;10019;46.670;14.260;2022-07-23T10:58:33;10.10;;;9.20;;
1779;SDS011;10019;46.670;14.260;2022-07-23T11:01:32;10.23;;;9.43;;
1779;SDS011;10019;46.670;14.260;2022-07-23T11:04:05;11.17;;;10.10;;
1779;SDS011;10019;46.670;14.260;2022-07-23T11:09:42;10.87;;;9.97;;
1779;SDS011;10019;46.670;14.260;2022-07-23T11:12:33;11.03;;;10.20;;
1779;SDS011;10019;46.670;14.260;2022-07-23T11:15:08;10.63;;;9.83;;
1779;SDS011;10019;46.670;14.260;2022-07-23T11:20:30;10.33;;;9.57;;
1779;SDS011;10019;46.670;14.260;2022-07-23T11:23:04;10.60;;;9.80;;
1779;SDS011;10019;46.670;14.260;2022-07-23T11:25:37;10.67;;;9.87;;
1779;SDS011;10019;46.670;14.260;2022-07-23T11:28:10;11.27;;;10.40;;
1779;SDS011;10019;46.670;14.260;2022-07-23T11:30:44;11.40;;;10.50;;
1779;SDS011;10019;46.670;14.260;2022-07-23T11:33:16;10.87;;;9.83;;
1779;SDS011;10019;46.670;14.260;2022-07-23T11:36:01;10.97;;;10.07;;
1779;SDS011;10019;46.670;14.260;2022-07-23T11:38:35;11.20;;;10.30;;
1779;SDS011;10019;46.670;14.260;2022-07-23T11:41:07;12.17;;;11.17;;
1779;SDS011;10019;46.670;14.260;2022-07-23T11:43:40;10.87;;;9.87;;
1779;SDS011;10019;46.670;14.260;2022-07-23T11:46:11;11.10;;;10.30;;
1779;SDS011;10019;46.670;14.260;2022-07-23T11:48:43;11.20;;;10.30;;
1779;SDS011;10019;46.670;14.260;2022-07-23T11:51:24;11.80;;;10.90;;
1779;SDS011;10019;46.670;14.260;2022-07-23T11:54:06;11.40;;;10.50;;
1779;SDS011;10019;46.670;14.260;2022-07-23T11:56:37;11.37;;;10.57;;
1779;SDS011;10019;46.670;14.260;2022-07-23T11:59:26;12.83;;;11.83;;
1779;SDS011;10019;46.670;14.260;2022-07-23T12:02:01;11.47;;;10.67;;
1779;SDS011;10019;46.670;14.260;2022-07-23T12:04:37;12.10;;;11.20;;
1779;SDS011;10019;46.670;14.260;2022-07-23T12:07:22;11.33;;;10.33;;
1779;SDS011;10019;46.670;14.260;2022-07-23T12:09:57;11.00;;;10.10;;
1779;SDS011;10019;46.670;14.260;2022-07-23T12:12:34;10.83;;;9.77;;
1779;SDS011;10019;46.670;14.260;2022-07-23T12:15:07;11.77;;;10.53;;
1779;SDS011;10019;46.670;14.260;2022-07-23T12:17:40;11.07;;;10.27;;
1779;SDS011;10019;46.670;14.260;2022-07-23T12:20:13;11.77;;;10.77;;
1779;SDS011;10019;46.670;14.260;2022-07-23T12:22:48;11.03;;;10.13;;
1779;SDS011;10019;46.670;14.260;2022-07-23T12:25:23;11.03;;;10.07;;
1779;SDS011;10019;46.670;14.260;2022-07-23T12:27:59;10.60;;;9.80;;
1779;SDS011;10019;46.670;14.260;2022-07-23T12:30:33;10.57;;;9.77;;
1779;SDS011;10019;46.670;14.260;2022-07-23T12:33:06;10.23;;;9.43;;
1779;SDS011;10019;46.670;14.260;2022-07-23T12:35:39;10.77;;;9.87;;
1779;SDS011;10019;46.670;14.260;2022-07-23T12:38:14;10.63;;;9.83;;
1779;SDS011;10019;46.670;14.260;2022-07-23T12:40:48;12.23;;;11.33;;
1779;SDS011;10019;46.670;14.260;2022-07-23T12:43:21;11.77;;;10.87;;
1779;SDS011;10019;46.670;14.260;2022-07-23T12:45:56;11.43;;;10.63;;
1779;SDS011;10019;46.670;14.260;2022-07-23T12:48:34;12.00;;;11.07;;
1779;SDS011;10019;46.670;14.260;2022-07-23T12:51:07;11.50;;;10.60;;
1779;SDS011;10019;46.670;14.260;2022-07-23T12:53:40;11.23;;;10.23;;
1779;SDS011;10019;46.670;14.260;2022-07-23T12:56:15;11.50;;;10.40;;
1779;SDS011;10019;46.670;14.260;2022-07-23T12:58:49;10.20;;;9.40;;
1779;SDS011;10019;46.670;14.260;2022-07-23T13:01:22;10.60;;;9.60;;
1779;SDS011;10019;46.670;14.260;2022-07-23T13:03:56;11.17;;;10.37;;
1779;SDS011;10019;46.670;14.260;2022-07-23T13:06:30;11.70;;;10.80;;
1779;SDS011;10019;46.670;14.260;2022-07-23T13:09:03;11.77;;;10.77;;
1779;SDS011;10019;46.670;14.260;2022-07-23T13:11:37;12.13;;;11.10;;
1779;SDS011;10019;46.670;14.260;2022-07-23T13:14:09;10.93;;;10.03;;
1779;SDS011;10019;46.670;14.260;2022-07-23T13:16:43;11.47;;;10.57;;
1779;SDS011;10019;46.670;14.260;2022-07-23T13:19:15;11.50;;;10.60;;
1779;SDS011;10019;46.670;14.260;2022-07-23T13:21:47;10.77;;;9.90;;
1779;SDS011;10019;46.670;14.260;2022-07-23T13:24:20;11.40;;;10.60;;
1779;SDS011;10019;46.670;14.260;2022-07-23T13:26:53;10.20;;;9.40;;
1779;SDS011;10019;46.670;14.260;2022-07-23T13:29:25;10.47;;;9.53;;
1779;SDS011;10019;46.670;14.260;2022-07-23T13:31:57;10.60;;;9.80;;
1779;SDS011;10019;46.670;14.260;2022-07-23T13:34:28;11.57;;;10.67;;
1779;SDS011;10019;46.670;14.260;2022-07-23T13:37:00;10.50;;;9.53;;
1779;SDS011;10019;46.670;14.260;2022-07-23T13:39:32;10.57;;;9.70;;
1779;SDS011;10019;46.670;14.260;2022-07-23T13:42:05;10.50;;;9.60;;
1779;SDS011;10019;46.670;14.260;2022-07-23T13:44:37;14.43;;;10.00;;
1779;SDS011;10019;46.670;14.260;2022-07-23T13:47:08;10.27;;;9.47;;
1779;SDS011;10019;46.670;14.260;2022-07-23T13:49:40;11.00;;;10.10;;
1779;SDS011;10019;46.670;14.260;2022-07-23T13:52:12;10.13;;;9.37;;
1779;SDS011;10019;46.670;14.260;2022-07-23T13:54:43;10.23;;;9.43;;
1779;SDS011;10019;46.670;14.260;2022-07-23T13:57:16;10.07;;;9.30;;
1779;SDS011;10019;46.670;14.260;2022-07-23T13:59:48;10.87;;;9.97;;
1779;SDS011;10019;46.670;14.260;2022-07-23T14:02:20;10.43;;;9.70;;
1779;SDS011;10019;46.670;14.260;2022-07-23T14:04:52;10.40;;;9.57;;
1779;SDS011;10019;46.670;14.260;2022-07-23T14:07:24;10.20;;;9.50;;
1779;SDS011;10019;46.670;14.260;2022-07-23T14:09:55;10.23;;;9.43;;
1779;SDS011;10019;46.670;14.260;2022-07-23T14:12:28;9.83;;;9.13;;
1779;SDS011;10019;46.670;14.260;2022-07-23T14:15:00;10.07;;;9.27;;
1779;SDS011;10019;46.670;14.260;2022-07-23T14:17:32;8.97;;;8.37;;
1779;SDS011;10019;46.670;14.260;2022-07-23T14:20:05;9.53;;;8.83;;
1779;SDS011;10019;46.670;14.260;2022-07-23T14:22:37;9.17;;;8.47;;
1779;SDS011;10019;46.670;14.260;2022-07-23T14:25:10;10.50;;;9.57;;
1779;SDS011;10019;46.670;14.260;2022-07-23T14:27:43;10.43;;;9.63;;
1779;SDS011;10019;46.670;14.260;2022-07-23T14:30:15;10.10;;;9.30;;
1779;SDS011;10019;46.670;14.260;2022-07-23T14:32:47;11.00;;;10.10;;
1779;SDS011;10019;46.670;14.260;2022-07-23T14:35:19;11.07;;;10.27;;
1779;SDS011;10019;46.670;14.260;2022-07-23T14:37:50;9.93;;;9.23;;
1779;SDS011;10019;46.670;14.260;2022-07-23T14:40:22;10.60;;;9.80;;
1779;SDS011;10019;46.670;14.260;2022-07-23T14:42:55;10.67;;;9.87;;
1779;SDS011;10019;46.670;14.260;2022-07-23T14:45:27;10.80;;;9.70;;
1779;SDS011;10019;46.670;14.260;2022-07-23T14:48:00;11.57;;;10.70;;
1779;SDS011;10019;46.670;14.260;2022-07-23T14:50:33;10.80;;;10.03;;
1779;SDS011;10019;46.670;14.260;2022-07-23T14:53:04;10.50;;;9.70;;
1779;SDS011;10019;46.670;14.260;2022-07-23T14:55:36;11.17;;;10.17;;
1779;SDS011;10019;46.670;14.260;2022-07-23T14:58:09;10.77;;;9.87;;
1779;SDS011;10019;46.670;14.260;2022-07-23T15:00:41;10.73;;;10.00;;
1779;SDS011;10019;46.670;14.260;2022-07-23T15:03:12;10.53;;;9.63;;